sensor_id;sensor_type;location;lat;lon;timestamp;temperature;humidity
68701;DHT22;55682;51.114;5.882;2023-06-01T00:01:08;17.76;66.46
68701;DHT22;55682;51.114;5.882;2023-06-01T00:03:38;17.69;66.69
68701;DHT22;55682;51.114;5.882;2023-06-01T00:06:05;17.68;66.79
68701;DHT22;55682;51.114;5.882;2023-06-01T00:08:31;17.61;66.95
68701;DHT22;55682;51.114;5.882;2023-06-01T00:10:57;17.59;67.02
68701;DHT22;55682;51.114;5.882;2023-06-01T00:13:23;17.52;67.20
68701;DHT22;55682;51.114;5.882;2023-06-01T00:15:48;17.45;67.22
68701;DHT22;55682;51.114;5.882;2023-06-01T00:18:14;17.46;67.33
68701;DHT22;55682;51.114;5.882;2023-06-01T00:20:41;17.32;67.56
68701;DHT22;55682;51.114;5.882;2023-06-01T00:23:07;17.29;67.88
68701;DHT22;55682;51.114;5.882;2023-06-01T00:25:34;17.21;67.97
68701;DHT22;55682;51.114;5.882;2023-06-01T00:28:00;17.15;68.23
68701;DHT22;55682;51.114;5.882;2023-06-01T00:30:28;17.03;68.39
68701;DHT22;55682;51.114;5.882;2023-06-01T00:32:53;16.98;68.76
68701;DHT22;55682;51.114;5.882;2023-06-01T00:35:20;16.92;68.75
68701;DHT22;55682;51.114;5.882;2023-06-01T00:37:46;16.88;68.95
68701;DHT22;55682;51.114;5.882;2023-06-01T00:40:12;16.91;68.78
68701;DHT22;55682;51.114;5.882;2023-06-01T00:42:37;16.82;68.97
68701;DHT22;55682;51.114;5.882;2023-06-01T00:45:04;16.74;69.13
68701;DHT22;55682;51.114;5.882;2023-06-01T00:47:39;16.71;69.24
68701;DHT22;55682;51.114;5.882;2023-06-01T00:50:05;16.61;69.46
68701;DHT22;55682;51.114;5.882;2023-06-01T00:52:31;16.54;69.84
68701;DHT22;55682;51.114;5.882;2023-06-01T00:54:57;16.48;70.03
68701;DHT22;55682;51.114;5.882;2023-06-01T00:57:24;16.45;70.13
68701;DHT22;55682;51.114;5.882;2023-06-01T00:59:53;16.48;69.97
68701;DHT22;55682;51.114;5.882;2023-06-01T01:02:19;16.43;70.07
68701;DHT22;55682;51.114;5.882;2023-06-01T01:04:46;16.41;70.08
68701;DHT22;55682;51.114;5.882;2023-06-01T01:07:27;16.37;70.05
68701;DHT22;55682;51.114;5.882;2023-06-01T01:10:03;16.32;70.19
68701;DHT22;55682;51.114;5.882;2023-06-01T01:12:50;16.29;70.35
68701;DHT22;55682;51.114;5.882;2023-06-01T01:15:26;16.17;70.41
68701;DHT22;55682;51.114;5.882;2023-06-01T01:18:03;16.08;70.75
68701;DHT22;55682;51.114;5.882;2023-06-01T01:20:44;16.00;71.04
68701;DHT22;55682;51.114;5.882;2023-06-01T01:28:54;15.83;71.48
68701;DHT22;55682;51.114;5.882;2023-06-01T01:31:24;15.76;71.65
68701;DHT22;55682;51.114;5.882;2023-06-01T01:33:56;15.68;71.97
68701;DHT22;55682;51.114;5.882;2023-06-01T01:36:23;15.62;72.22
68701;DHT22;55682;51.114;5.882;2023-06-01T01:38:49;15.59;72.13
68701;DHT22;55682;51.114;5.882;2023-06-01T01:41:17;15.59;72.09
68701;DHT22;55682;51.114;5.882;2023-06-01T01:43:44;15.55;72.22
68701;DHT22;55682;51.114;5.882;2023-06-01T01:46:28;15.52;72.32
68701;DHT22;55682;51.114;5.882;2023-06-01T01:51:29;15.39;72.59
68701;DHT22;55682;51.114;5.882;2023-06-01T01:53:56;15.34;72.70
68701;DHT22;55682;51.114;5.882;2023-06-01T01:56:24;15.28;72.77
68701;DHT22;55682;51.114;5.882;2023-06-01T01:58:53;15.23;72.99
68701;DHT22;55682;51.114;5.882;2023-06-01T02:01:20;15.17;73.18
68701;DHT22;55682;51.114;5.882;2023-06-01T02:03:46;15.12;73.39
68701;DHT22;55682;51.114;5.882;2023-06-01T02:06:12;15.10;73.59
68701;DHT22;55682;51.114;5.882;2023-06-01T02:08:38;15.04;73.57
68701;DHT22;55682;51.114;5.882;2023-06-01T02:11:04;14.99;73.64
68701;DHT22;55682;51.114;5.882;2023-06-01T02:13:31;14.89;73.93
68701;DHT22;55682;51.114;5.882;2023-06-01T02:15:56;14.89;74.09
68701;DHT22;55682;51.114;5.882;2023-06-01T02:18:22;14.87;74.25
68701;DHT22;55682;51.114;5.882;2023-06-01T02:20:47;14.85;74.01
68701;DHT22;55682;51.114;5.882;2023-06-01T02:23:13;14.78;74.36
68701;DHT22;55682;51.114;5.882;2023-06-01T02:25:39;14.66;74.70
68701;DHT22;55682;51.114;5.882;2023-06-01T02:28:04;14.55;75.17
68701;DHT22;55682;51.114;5.882;2023-06-01T02:30:30;14.55;75.22
68701;DHT22;55682;51.114;5.882;2023-06-01T02:32:56;14.56;75.17
68701;DHT22;55682;51.114;5.882;2023-06-01T02:35:22;14.62;75.03
68701;DHT22;55682;51.114;5.882;2023-06-01T02:37:48;14.53;75.09
68701;DHT22;55682;51.114;5.882;2023-06-01T02:40:14;14.51;75.17
68701;DHT22;55682;51.114;5.882;2023-06-01T02:42:40;14.47;75.19
68701;DHT22;55682;51.114;5.882;2023-06-01T02:45:06;14.43;75.26
68701;DHT22;55682;51.114;5.882;2023-06-01T02:47:32;14.39;75.34
68701;DHT22;55682;51.114;5.882;2023-06-01T02:49:58;14.38;75.52
68701;DHT22;55682;51.114;5.882;2023-06-01T02:52:24;14.29;75.56
68701;DHT22;55682;51.114;5.882;2023-06-01T02:54:50;14.25;75.67
68701;DHT22;55682;51.114;5.882;2023-06-01T02:57:41;14.15;75.95
68701;DHT22;55682;51.114;5.882;2023-06-01T03:00:07;14.14;75.89
68701;DHT22;55682;51.114;5.882;2023-06-01T03:02:43;14.08;76.01
68701;DHT22;55682;51.114;5.882;2023-06-01T03:05:09;13.98;76.39
68701;DHT22;55682;51.114;5.882;2023-06-01T03:07:46;13.95;76.35
68701;DHT22;55682;51.114;5.882;2023-06-01T03:10:19;13.89;76.45
68701;DHT22;55682;51.114;5.882;2023-06-01T03:12:57;13.83;76.65
68701;DHT22;55682;51.114;5.882;2023-06-01T03:15:23;13.81;76.73
68701;DHT22;55682;51.114;5.882;2023-06-01T03:17:49;13.77;76.82
68701;DHT22;55682;51.114;5.882;2023-06-01T03:20:14;13.75;76.95
68701;DHT22;55682;51.114;5.882;2023-06-01T03:22:45;13.78;76.61
68701;DHT22;55682;51.114;5.882;2023-06-01T03:25:12;13.69;76.98
68701;DHT22;55682;51.114;5.882;2023-06-01T03:27:39;13.69;76.89
68701;DHT22;55682;51.114;5.882;2023-06-01T03:30:05;13.67;77.05
68701;DHT22;55682;51.114;5.882;2023-06-01T03:32:36;13.70;76.91
68701;DHT22;55682;51.114;5.882;2023-06-01T03:35:03;13.69;76.76
68701;DHT22;55682;51.114;5.882;2023-06-01T03:37:29;13.69;76.66
68701;DHT22;55682;51.114;5.882;2023-06-01T03:39:55;13.66;76.86
68701;DHT22;55682;51.114;5.882;2023-06-01T03:42:22;13.69;76.78
68701;DHT22;55682;51.114;5.882;2023-06-01T03:44:48;13.74;76.60
68701;DHT22;55682;51.114;5.882;2023-06-01T03:47:14;13.77;76.35
68701;DHT22;55682;51.114;5.882;2023-06-01T03:49:40;13.69;76.63
68701;DHT22;55682;51.114;5.882;2023-06-01T03:52:09;13.74;76.42
68701;DHT22;55682;51.114;5.882;2023-06-01T03:54:36;13.74;76.54
68701;DHT22;55682;51.114;5.882;2023-06-01T03:57:04;13.67;76.57
68701;DHT22;55682;51.114;5.882;2023-06-01T03:59:31;13.62;76.90
68701;DHT22;55682;51.114;5.882;2023-06-01T04:01:57;13.58;77.08
68701;DHT22;55682;51.114;5.882;2023-06-01T04:04:28;13.52;77.35
68701;DHT22;55682;51.114;5.882;2023-06-01T04:06:54;13.59;77.29
68701;DHT22;55682;51.114;5.882;2023-06-01T04:09:27;13.60;77.34
68701;DHT22;55682;51.114;5.882;2023-06-01T04:11:52;13.63;77.13
68701;DHT22;55682;51.114;5.882;2023-06-01T04:14:18;13.67;76.94
68701;DHT22;55682;51.114;5.882;2023-06-01T04:16:44;13.70;76.70
68701;DHT22;55682;51.114;5.882;2023-06-01T04:19:09;13.70;76.79
68701;DHT22;55682;51.114;5.882;2023-06-01T04:21:36;13.76;76.28
68701;DHT22;55682;51.114;5.882;2023-06-01T04:24:02;13.77;76.15
68701;DHT22;55682;51.114;5.882;2023-06-01T04:26:28;13.78;75.89
68701;DHT22;55682;51.114;5.882;2023-06-01T04:28:58;13.75;76.00
68701;DHT22;55682;51.114;5.882;2023-06-01T04:31:24;13.80;76.12
68701;DHT22;55682;51.114;5.882;2023-06-01T04:33:50;13.92;75.58
68701;DHT22;55682;51.114;5.882;2023-06-01T04:36:20;13.96;74.98
68701;DHT22;55682;51.114;5.882;2023-06-01T04:38:48;13.91;74.74
68701;DHT22;55682;51.114;5.882;2023-06-01T04:41:21;13.89;75.28
68701;DHT22;55682;51.114;5.882;2023-06-01T04:43:51;13.89;75.28
68701;DHT22;55682;51.114;5.882;2023-06-01T04:46:22;13.98;74.86
68701;DHT22;55682;51.114;5.882;2023-06-01T04:48:53;13.98;74.40
68701;DHT22;55682;51.114;5.882;2023-06-01T04:51:20;13.96;74.33
68701;DHT22;55682;51.114;5.882;2023-06-01T04:53:48;13.95;74.24
68701;DHT22;55682;51.114;5.882;2023-06-01T04:56:17;14.03;74.22
68701;DHT22;55682;51.114;5.882;2023-06-01T04:58:44;14.10;73.94
68701;DHT22;55682;51.114;5.882;2023-06-01T05:01:10;14.18;73.37
68701;DHT22;55682;51.114;5.882;2023-06-01T05:03:38;14.06;72.87
68701;DHT22;55682;51.114;5.882;2023-06-01T05:06:04;13.80;73.96
68701;DHT22;55682;51.114;5.882;2023-06-01T05:08:30;13.74;74.48
68701;DHT22;55682;51.114;5.882;2023-06-01T05:10:57;13.82;74.32
68701;DHT22;55682;51.114;5.882;2023-06-01T05:13:22;13.94;74.11
68701;DHT22;55682;51.114;5.882;2023-06-01T05:15:48;14.00;73.28
68701;DHT22;55682;51.114;5.882;2023-06-01T05:18:14;14.06;73.21
68701;DHT22;55682;51.114;5.882;2023-06-01T05:20:40;14.17;72.71
68701;DHT22;55682;51.114;5.882;2023-06-01T05:23:06;14.27;72.09
68701;DHT22;55682;51.114;5.882;2023-06-01T05:25:31;14.36;71.70
68701;DHT22;55682;51.114;5.882;2023-06-01T05:27:57;14.44;71.29
68701;DHT22;55682;51.114;5.882;2023-06-01T05:30:23;14.52;70.73
68701;DHT22;55682;51.114;5.882;2023-06-01T05:32:50;14.55;70.58
68701;DHT22;55682;51.114;5.882;2023-06-01T05:35:18;14.58;70.48
68701;DHT22;55682;51.114;5.882;2023-06-01T05:37:44;14.62;70.05
68701;DHT22;55682;51.114;5.882;2023-06-01T05:40:10;14.64;70.28
68701;DHT22;55682;51.114;5.882;2023-06-01T05:42:37;14.63;70.19
68701;DHT22;55682;51.114;5.882;2023-06-01T05:45:03;14.56;70.33
68701;DHT22;55682;51.114;5.882;2023-06-01T05:47:29;14.54;70.64
68701;DHT22;55682;51.114;5.882;2023-06-01T05:49:55;14.59;70.43
68701;DHT22;55682;51.114;5.882;2023-06-01T05:52:22;14.57;70.30
68701;DHT22;55682;51.114;5.882;2023-06-01T05:54:48;14.55;70.35
68701;DHT22;55682;51.114;5.882;2023-06-01T05:57:15;14.47;70.52
68701;DHT22;55682;51.114;5.882;2023-06-01T05:59:40;14.41;70.91
68701;DHT22;55682;51.114;5.882;2023-06-01T06:02:07;14.44;70.95
68701;DHT22;55682;51.114;5.882;2023-06-01T06:04:33;14.64;70.39
68701;DHT22;55682;51.114;5.882;2023-06-01T06:06:59;14.78;69.88
68701;DHT22;55682;51.114;5.882;2023-06-01T06:09:24;14.98;68.82
68701;DHT22;55682;51.114;5.882;2023-06-01T06:11:51;15.19;68.05
68701;DHT22;55682;51.114;5.882;2023-06-01T06:14:16;15.33;67.25
68701;DHT22;55682;51.114;5.882;2023-06-01T06:16:42;15.52;66.67
68701;DHT22;55682;51.114;5.882;2023-06-01T06:19:08;15.78;66.21
68701;DHT22;55682;51.114;5.882;2023-06-01T06:21:34;16.13;64.63
68701;DHT22;55682;51.114;5.882;2023-06-01T06:24:00;16.33;63.39
68701;DHT22;55682;51.114;5.882;2023-06-01T06:26:26;16.49;62.97
68701;DHT22;55682;51.114;5.882;2023-06-01T06:28:52;16.69;61.91
68701;DHT22;55682;51.114;5.882;2023-06-01T06:31:18;16.79;61.59
68701;DHT22;55682;51.114;5.882;2023-06-01T06:33:43;17.01;60.73
68701;DHT22;55682;51.114;5.882;2023-06-01T06:36:09;17.15;59.96
68701;DHT22;55682;51.114;5.882;2023-06-01T06:38:35;17.18;60.09
68701;DHT22;55682;51.114;5.882;2023-06-01T06:41:00;17.47;59.85
68701;DHT22;55682;51.114;5.882;2023-06-01T06:43:26;17.83;58.99
68701;DHT22;55682;51.114;5.882;2023-06-01T06:45:51;18.29;57.41
68701;DHT22;55682;51.114;5.882;2023-06-01T06:48:17;18.85;56.12
68701;DHT22;55682;51.114;5.882;2023-06-01T06:50:42;19.47;54.16
68701;DHT22;55682;51.114;5.882;2023-06-01T06:53:11;19.99;51.71
68701;DHT22;55682;51.114;5.882;2023-06-01T06:55:36;20.58;50.59
68701;DHT22;55682;51.114;5.882;2023-06-01T06:58:02;21.17;48.72
68701;DHT22;55682;51.114;5.882;2023-06-01T07:00:27;22.21;46.89
68701;DHT22;55682;51.114;5.882;2023-06-01T07:02:54;23.03;44.45
68701;DHT22;55682;51.114;5.882;2023-06-01T07:05:20;24.21;41.42
68701;DHT22;55682;51.114;5.882;2023-06-01T07:07:46;24.74;39.64
68701;DHT22;55682;51.114;5.882;2023-06-01T07:10:12;25.67;37.57
68701;DHT22;55682;51.114;5.882;2023-06-01T07:12:38;26.76;35.85
68701;DHT22;55682;51.114;5.882;2023-06-01T07:15:04;28.09;33.26
68701;DHT22;55682;51.114;5.882;2023-06-01T07:17:30;28.85;30.10
68701;DHT22;55682;51.114;5.882;2023-06-01T07:19:56;28.83;30.72
68701;DHT22;55682;51.114;5.882;2023-06-01T07:22:22;29.41;29.50
68701;DHT22;55682;51.114;5.882;2023-06-01T07:24:47;29.91;28.94
68701;DHT22;55682;51.114;5.882;2023-06-01T07:27:13;30.33;27.57
68701;DHT22;55682;51.114;5.882;2023-06-01T07:29:40;30.31;27.49
68701;DHT22;55682;51.114;5.882;2023-06-01T07:32:06;30.26;27.29
68701;DHT22;55682;51.114;5.882;2023-06-01T07:34:32;30.63;27.38
68701;DHT22;55682;51.114;5.882;2023-06-01T07:37:01;31.14;26.30
68701;DHT22;55682;51.114;5.882;2023-06-01T07:39:26;31.92;25.28
68701;DHT22;55682;51.114;5.882;2023-06-01T07:41:53;32.49;23.32
68701;DHT22;55682;51.114;5.882;2023-06-01T07:44:20;32.33;23.53
68701;DHT22;55682;51.114;5.882;2023-06-01T07:46:46;32.61;23.66
68701;DHT22;55682;51.114;5.882;2023-06-01T07:49:13;33.00;22.77
68701;DHT22;55682;51.114;5.882;2023-06-01T07:51:40;33.42;22.09
68701;DHT22;55682;51.114;5.882;2023-06-01T07:54:06;33.47;21.82
68701;DHT22;55682;51.114;5.882;2023-06-01T07:56:33;33.71;21.11
68701;DHT22;55682;51.114;5.882;2023-06-01T07:58:59;33.46;21.38
68701;DHT22;55682;51.114;5.882;2023-06-01T08:01:25;32.84;22.02
68701;DHT22;55682;51.114;5.882;2023-06-01T08:03:51;32.20;23.37
68701;DHT22;55682;51.114;5.882;2023-06-01T08:06:17;32.50;23.27
68701;DHT22;55682;51.114;5.882;2023-06-01T08:08:43;33.04;22.66
68701;DHT22;55682;51.114;5.882;2023-06-01T08:11:09;33.64;21.79
68701;DHT22;55682;51.114;5.882;2023-06-01T08:13:35;34.20;20.80
68701;DHT22;55682;51.114;5.882;2023-06-01T08:16:02;33.91;20.54
68701;DHT22;55682;51.114;5.882;2023-06-01T08:18:29;33.44;21.39
68701;DHT22;55682;51.114;5.882;2023-06-01T08:20:55;32.68;22.59
68701;DHT22;55682;51.114;5.882;2023-06-01T08:23:21;32.43;23.08
68701;DHT22;55682;51.114;5.882;2023-06-01T08:25:50;32.60;22.84
68701;DHT22;55682;51.114;5.882;2023-06-01T08:28:15;33.31;22.20
68701;DHT22;55682;51.114;5.882;2023-06-01T08:30:41;33.50;21.59
68701;DHT22;55682;51.114;5.882;2023-06-01T08:33:07;33.66;20.93
68701;DHT22;55682;51.114;5.882;2023-06-01T08:35:33;33.51;21.20
68701;DHT22;55682;51.114;5.882;2023-06-01T08:38:03;33.53;21.06
68701;DHT22;55682;51.114;5.882;2023-06-01T08:40:29;32.94;21.60
68701;DHT22;55682;51.114;5.882;2023-06-01T08:45:28;32.41;22.74
68701;DHT22;55682;51.114;5.882;2023-06-01T08:47:57;33.25;21.60
68701;DHT22;55682;51.114;5.882;2023-06-01T08:50:26;33.72;20.65
68701;DHT22;55682;51.114;5.882;2023-06-01T08:52:56;33.51;20.84
68701;DHT22;55682;51.114;5.882;2023-06-01T08:55:24;32.87;21.86
68701;DHT22;55682;51.114;5.882;2023-06-01T08:57:49;32.49;22.55
68701;DHT22;55682;51.114;5.882;2023-06-01T09:00:15;32.83;22.17
68701;DHT22;55682;51.114;5.882;2023-06-01T09:02:42;33.34;21.34
68701;DHT22;55682;51.114;5.882;2023-06-01T09:05:09;33.61;21.07
68701;DHT22;55682;51.114;5.882;2023-06-01T09:07:34;33.93;20.41
68701;DHT22;55682;51.114;5.882;2023-06-01T09:10:00;34.21;20.34
68701;DHT22;55682;51.114;5.882;2023-06-01T09:12:28;34.85;19.47
68701;DHT22;55682;51.114;5.882;2023-06-01T09:15:14;34.42;19.60
68701;DHT22;55682;51.114;5.882;2023-06-01T09:17:45;33.36;21.26
68701;DHT22;55682;51.114;5.882;2023-06-01T09:20:28;33.83;21.05
68701;DHT22;55682;51.114;5.882;2023-06-01T09:22:55;35.01;19.55
68701;DHT22;55682;51.114;5.882;2023-06-01T09:25:26;36.10;17.90
68701;DHT22;55682;51.114;5.882;2023-06-01T09:27:58;35.98;17.44
68701;DHT22;55682;51.114;5.882;2023-06-01T09:30:26;35.42;18.54
68701;DHT22;55682;51.114;5.882;2023-06-01T09:33:12;36.07;18.07
68701;DHT22;55682;51.114;5.882;2023-06-01T09:38:07;36.27;17.33
68701;DHT22;55682;51.114;5.882;2023-06-01T09:40:33;35.83;17.69
68701;DHT22;55682;51.114;5.882;2023-06-01T09:43:00;35.79;17.73
68701;DHT22;55682;51.114;5.882;2023-06-01T09:45:30;36.22;17.67
68701;DHT22;55682;51.114;5.882;2023-06-01T09:48:15;37.06;16.88
68701;DHT22;55682;51.114;5.882;2023-06-01T09:50:42;37.26;16.38
68701;DHT22;55682;51.114;5.882;2023-06-01T09:53:09;37.34;16.35
68701;DHT22;55682;51.114;5.882;2023-06-01T09:55:35;37.57;16.00
68701;DHT22;55682;51.114;5.882;2023-06-01T09:58:21;37.97;15.82
68701;DHT22;55682;51.114;5.882;2023-06-01T10:00:51;37.88;15.70
68701;DHT22;55682;51.114;5.882;2023-06-01T10:03:19;37.54;15.76
68701;DHT22;55682;51.114;5.882;2023-06-01T10:05:46;37.23;16.41
68701;DHT22;55682;51.114;5.882;2023-06-01T10:08:15;37.63;15.99
68701;DHT22;55682;51.114;5.882;2023-06-01T10:10:44;37.77;15.65
68701;DHT22;55682;51.114;5.882;2023-06-01T10:13:10;37.89;15.33
68701;DHT22;55682;51.114;5.882;2023-06-01T10:15:36;37.79;15.54
68701;DHT22;55682;51.114;5.882;2023-06-01T10:18:05;38.14;15.28
68701;DHT22;55682;51.114;5.882;2023-06-01T10:20:33;38.21;14.94
68701;DHT22;55682;51.114;5.882;2023-06-01T10:23:00;37.94;15.14
68701;DHT22;55682;51.114;5.882;2023-06-01T10:25:30;37.87;15.93
68701;DHT22;55682;51.114;5.882;2023-06-01T10:28:03;38.33;15.26
68701;DHT22;55682;51.114;5.882;2023-06-01T10:30:29;38.68;14.81
68701;DHT22;55682;51.114;5.882;2023-06-01T10:32:55;38.58;14.83
68701;DHT22;55682;51.114;5.882;2023-06-01T10:40:45;38.39;14.73
68701;DHT22;55682;51.114;5.882;2023-06-01T10:46:03;38.86;14.13
68701;DHT22;55682;51.114;5.882;2023-06-01T10:48:56;38.15;14.52
68701;DHT22;55682;51.114;5.882;2023-06-01T10:51:23;38.32;14.73
68701;DHT22;55682;51.114;5.882;2023-06-01T10:53:53;38.85;13.80
68701;DHT22;55682;51.114;5.882;2023-06-01T10:56:23;38.75;13.97
68701;DHT22;55682;51.114;5.882;2023-06-01T10:59:09;38.40;14.20
68701;DHT22;55682;51.114;5.882;2023-06-01T11:01:38;38.49;14.39
68701;DHT22;55682;51.114;5.882;2023-06-01T11:04:04;38.90;14.20
68701;DHT22;55682;51.114;5.882;2023-06-01T11:06:32;39.13;13.65
68701;DHT22;55682;51.114;5.882;2023-06-01T11:09:04;38.79;13.80
68701;DHT22;55682;51.114;5.882;2023-06-01T11:14:27;38.29;15.04
68701;DHT22;55682;51.114;5.882;2023-06-01T11:17:25;38.82;14.55
68701;DHT22;55682;51.114;5.882;2023-06-01T11:20:00;39.05;13.94
68701;DHT22;55682;51.114;5.882;2023-06-01T11:22:34;38.80;14.44
68701;DHT22;55682;51.114;5.882;2023-06-01T11:25:04;39.25;14.11
68701;DHT22;55682;51.114;5.882;2023-06-01T11:27:31;39.36;13.84
68701;DHT22;55682;51.114;5.882;2023-06-01T11:29:57;39.39;13.61
68701;DHT22;55682;51.114;5.882;2023-06-01T11:32:26;39.48;13.49
68701;DHT22;55682;51.114;5.882;2023-06-01T11:34:52;39.55;13.45
68701;DHT22;55682;51.114;5.882;2023-06-01T11:37:20;39.57;13.00
68701;DHT22;55682;51.114;5.882;2023-06-01T11:39:46;39.02;13.15
68701;DHT22;55682;51.114;5.882;2023-06-01T11:42:16;38.59;13.58
68701;DHT22;55682;51.114;5.882;2023-06-01T11:44:43;38.54;13.92
68701;DHT22;55682;51.114;5.882;2023-06-01T11:47:11;38.75;13.76
68701;DHT22;55682;51.114;5.882;2023-06-01T11:49:48;39.02;13.55
68701;DHT22;55682;51.114;5.882;2023-06-01T11:52:15;39.00;13.81
68701;DHT22;55682;51.114;5.882;2023-06-01T11:54:41;38.96;13.80
68701;DHT22;55682;51.114;5.882;2023-06-01T11:57:07;38.77;14.03
68701;DHT22;55682;51.114;5.882;2023-06-01T11:59:37;37.77;14.84
68701;DHT22;55682;51.114;5.882;2023-06-01T12:02:20;35.85;16.42
68701;DHT22;55682;51.114;5.882;2023-06-01T12:05:06;34.03;18.52
68701;DHT22;55682;51.114;5.882;2023-06-01T12:07:44;32.90;19.99
68701;DHT22;55682;51.114;5.882;2023-06-01T12:10:11;32.11;21.34
68701;DHT22;55682;51.114;5.882;2023-06-01T12:12:40;31.83;22.18
68701;DHT22;55682;51.114;5.882;2023-06-01T12:15:07;31.76;22.14
68701;DHT22;55682;51.114;5.882;2023-06-01T12:17:52;31.31;23.07
68701;DHT22;55682;51.114;5.882;2023-06-01T12:20:33;31.08;23.73
68701;DHT22;55682;51.114;5.882;2023-06-01T12:23:02;30.98;23.79
68701;DHT22;55682;51.114;5.882;2023-06-01T12:25:29;30.72;23.91
68701;DHT22;55682;51.114;5.882;2023-06-01T12:28:06;30.28;24.51
68701;DHT22;55682;51.114;5.882;2023-06-01T12:30:33;30.08;25.52
68701;DHT22;55682;51.114;5.882;2023-06-01T12:33:00;30.10;25.38
68701;DHT22;55682;51.114;5.882;2023-06-01T12:35:26;30.08;24.56
68701;DHT22;55682;51.114;5.882;2023-06-01T12:38:05;29.92;24.99
68701;DHT22;55682;51.114;5.882;2023-06-01T12:40:33;29.92;24.43
68701;DHT22;55682;51.114;5.882;2023-06-01T12:43:03;29.49;25.01
68701;DHT22;55682;51.114;5.882;2023-06-01T12:45:38;29.42;25.53
68701;DHT22;55682;51.114;5.882;2023-06-01T12:48:04;29.51;25.50
68701;DHT22;55682;51.114;5.882;2023-06-01T12:50:30;29.61;25.53
68701;DHT22;55682;51.114;5.882;2023-06-01T12:52:56;29.70;25.35
68701;DHT22;55682;51.114;5.882;2023-06-01T12:55:22;29.72;25.13
68701;DHT22;55682;51.114;5.882;2023-06-01T12:57:55;29.81;25.30
68701;DHT22;55682;51.114;5.882;2023-06-01T13:00:21;29.72;25.25
68701;DHT22;55682;51.114;5.882;2023-06-01T13:02:47;29.72;25.68
68701;DHT22;55682;51.114;5.882;2023-06-01T13:05:16;29.82;25.45
68701;DHT22;55682;51.114;5.882;2023-06-01T13:07:45;29.93;25.25
68701;DHT22;55682;51.114;5.882;2023-06-01T13:10:12;30.05;24.92
68701;DHT22;55682;51.114;5.882;2023-06-01T13:12:38;30.05;24.82
68701;DHT22;55682;51.114;5.882;2023-06-01T13:15:06;29.90;24.79
68701;DHT22;55682;51.114;5.882;2023-06-01T13:17:32;29.73;24.73
68701;DHT22;55682;51.114;5.882;2023-06-01T13:19:58;29.58;25.23
68701;DHT22;55682;51.114;5.882;2023-06-01T13:22:24;29.54;25.13
68701;DHT22;55682;51.114;5.882;2023-06-01T13:24:49;29.56;25.26
68701;DHT22;55682;51.114;5.882;2023-06-01T13:27:15;29.58;25.38
68701;DHT22;55682;51.114;5.882;2023-06-01T13:29:41;29.56;25.21
68701;DHT22;55682;51.114;5.882;2023-06-01T13:32:07;29.56;25.49
68701;DHT22;55682;51.114;5.882;2023-06-01T13:34:34;29.62;25.07
68701;DHT22;55682;51.114;5.882;2023-06-01T13:37:00;29.63;24.80
68701;DHT22;55682;51.114;5.882;2023-06-01T13:39:25;29.31;25.10
68701;DHT22;55682;51.114;5.882;2023-06-01T13:41:51;29.12;25.64
68701;DHT22;55682;51.114;5.882;2023-06-01T13:44:16;29.15;26.00
68701;DHT22;55682;51.114;5.882;2023-06-01T13:46:43;29.27;25.99
68701;DHT22;55682;51.114;5.882;2023-06-01T13:49:09;29.31;26.10
68701;DHT22;55682;51.114;5.882;2023-06-01T13:51:35;29.17;26.51
68701;DHT22;55682;51.114;5.882;2023-06-01T13:54:04;29.21;26.14
68701;DHT22;55682;51.114;5.882;2023-06-01T13:56:30;29.30;25.72
68701;DHT22;55682;51.114;5.882;2023-06-01T13:58:55;29.09;26.24
68701;DHT22;55682;51.114;5.882;2023-06-01T14:01:22;28.88;26.55
68701;DHT22;55682;51.114;5.882;2023-06-01T14:03:47;28.69;27.37
68701;DHT22;55682;51.114;5.882;2023-06-01T14:06:13;28.76;27.16
68701;DHT22;55682;51.114;5.882;2023-06-01T14:08:39;28.69;27.26
68701;DHT22;55682;51.114;5.882;2023-06-01T14:11:05;28.67;27.57
68701;DHT22;55682;51.114;5.882;2023-06-01T14:13:30;28.63;27.43
68701;DHT22;55682;51.114;5.882;2023-06-01T14:15:56;28.70;27.03
68701;DHT22;55682;51.114;5.882;2023-06-01T14:18:22;28.54;27.39
68701;DHT22;55682;51.114;5.882;2023-06-01T14:20:47;28.41;27.94
68701;DHT22;55682;51.114;5.882;2023-06-01T14:23:13;28.43;28.08
68701;DHT22;55682;51.114;5.882;2023-06-01T14:25:40;28.47;27.76
68701;DHT22;55682;51.114;5.882;2023-06-01T14:28:06;28.35;27.92
68701;DHT22;55682;51.114;5.882;2023-06-01T14:30:32;28.37;27.74
68701;DHT22;55682;51.114;5.882;2023-06-01T14:32:58;28.44;27.87
68701;DHT22;55682;51.114;5.882;2023-06-01T14:35:23;28.53;28.02
68701;DHT22;55682;51.114;5.882;2023-06-01T14:37:52;28.57;27.89
68701;DHT22;55682;51.114;5.882;2023-06-01T14:40:18;28.60;27.95
68701;DHT22;55682;51.114;5.882;2023-06-01T14:42:44;28.61;27.17
68701;DHT22;55682;51.114;5.882;2023-06-01T14:45:10;28.33;27.25
68701;DHT22;55682;51.114;5.882;2023-06-01T14:47:37;28.14;27.74
68701;DHT22;55682;51.114;5.882;2023-06-01T14:50:02;28.17;27.68
68701;DHT22;55682;51.114;5.882;2023-06-01T14:52:28;28.19;27.70
68701;DHT22;55682;51.114;5.882;2023-06-01T14:54:55;28.29;27.55
68701;DHT22;55682;51.114;5.882;2023-06-01T14:57:21;28.29;27.77
68701;DHT22;55682;51.114;5.882;2023-06-01T14:59:46;28.30;27.70
68701;DHT22;55682;51.114;5.882;2023-06-01T15:02:12;28.27;27.32
68701;DHT22;55682;51.114;5.882;2023-06-01T15:04:38;28.06;27.46
68701;DHT22;55682;51.114;5.882;2023-06-01T15:07:03;28.01;27.60
68701;DHT22;55682;51.114;5.882;2023-06-01T15:09:30;27.96;27.49
68701;DHT22;55682;51.114;5.882;2023-06-01T15:11:55;27.78;27.81
68701;DHT22;55682;51.114;5.882;2023-06-01T15:14:22;27.66;28.65
68701;DHT22;55682;51.114;5.882;2023-06-01T15:16:48;27.54;29.09
68701;DHT22;55682;51.114;5.882;2023-06-01T15:19:13;27.51;29.27
68701;DHT22;55682;51.114;5.882;2023-06-01T15:21:39;27.58;29.72
68701;DHT22;55682;51.114;5.882;2023-06-01T15:24:05;27.69;29.60
68701;DHT22;55682;51.114;5.882;2023-06-01T15:26:31;27.75;29.39
68701;DHT22;55682;51.114;5.882;2023-06-01T15:28:56;27.74;29.34
68701;DHT22;55682;51.114;5.882;2023-06-01T15:31:22;27.64;29.64
68701;DHT22;55682;51.114;5.882;2023-06-01T15:33:48;27.59;30.10
68701;DHT22;55682;51.114;5.882;2023-06-01T15:36:13;27.61;30.13
68701;DHT22;55682;51.114;5.882;2023-06-01T15:38:42;27.59;30.32
68701;DHT22;55682;51.114;5.882;2023-06-01T15:41:08;27.64;30.24
68701;DHT22;55682;51.114;5.882;2023-06-01T15:43:34;27.61;30.15
68701;DHT22;55682;51.114;5.882;2023-06-01T15:46:02;27.60;30.40
68701;DHT22;55682;51.114;5.882;2023-06-01T15:48:27;27.51;30.06
68701;DHT22;55682;51.114;5.882;2023-06-01T15:50:53;27.38;30.25
68701;DHT22;55682;51.114;5.882;2023-06-01T15:53:18;27.24;30.48
68701;DHT22;55682;51.114;5.882;2023-06-01T15:55:45;27.19;30.54
68701;DHT22;55682;51.114;5.882;2023-06-01T15:58:11;27.12;30.39